Terminal Aerodrome Forecast
Issued by NWS Billings, MT

Home | Current Version | Previous Version | Text Only | Print | Product List | Glossary On
Versions: 1 2 3 4 5 6 7 8 9 10 11 12 13 14 15 16 17 18 19 20 21 22 23 24 25 26 27 28 29 30 31 32
000
FTUS45 KBYZ 251335 AAA
TAFSHR
TAF AMD
KSHR 251335Z 2514/2612 12003KT P6SM -RA SCT025 OVC035
     FM251700 VRB04KT P6SM VCSH SCT025 OVC050
     FM260000 VRB04KT P6SM FEW050=

USA.gov is the U.S. government's official web portal to all federal, state and local government web resources and services.